createdAt,value
2022-08-22T00:00:58.440Z,5.17
2022-08-22T00:02:53.437Z,5.18
2022-08-22T00:02:59.626Z,7.57
2022-08-22T00:03:00.572Z,3.97
2022-08-22T00:03:12.559Z,8.70
2022-08-22T00:03:56.284Z,6.77
2022-08-22T00:06:47.963Z,4.80
2022-08-22T00:09:33.760Z,3.47
2022-08-22T00:12:23.782Z,5.67
2022-08-22T00:15:16.774Z,8.33
2022-08-22T00:18:13.010Z,6.67
2022-08-22T00:21:30.670Z,6.03
2022-08-22T00:24:41.654Z,6.10
2022-08-22T00:27:23.545Z,4.47
2022-08-22T00:30:05.675Z,4.57
2022-08-22T00:32:37.396Z,7.93
2022-08-22T00:35:35.147Z,3.87
2022-08-22T00:38:31.053Z,4.23
2022-08-22T00:41:14.113Z,6.87
2022-08-22T00:43:53.480Z,6.07
2022-08-22T00:46:55.122Z,6.83
2022-08-22T00:50:14.942Z,5.80
2022-08-22T00:53:29.450Z,9.00
2022-08-22T00:56:17.324Z,8.00
2022-08-22T00:59:23.444Z,7.50
2022-08-22T01:02:29.619Z,3.73
2022-08-22T01:05:24.338Z,5.10
2022-08-22T01:08:16.357Z,4.30
2022-08-22T01:11:04.217Z,5.97
2022-08-22T01:14:04.767Z,6.87
2022-08-22T01:17:00.541Z,4.30
2022-08-22T01:20:19.794Z,5.97
2022-08-22T01:23:20.807Z,10.07
2022-08-22T01:26:45.220Z,4.27
2022-08-22T01:29:47.544Z,4.50
2022-08-22T01:32:47.759Z,4.10
2022-08-22T01:35:53.687Z,5.53
2022-08-22T01:38:49.156Z,7.57
2022-08-22T01:41:42.349Z,5.70
2022-08-22T01:44:27.151Z,7.47
2022-08-22T01:47:15.412Z,7.47
2022-08-22T01:49:54.224Z,3.97
2022-08-22T01:52:45.052Z,5.57
2022-08-22T01:55:38.800Z,6.40
2022-08-22T01:58:24.004Z,7.13
2022-08-22T02:01:02.780Z,5.77
2022-08-22T02:04:07.383Z,5.43
2022-08-22T02:07:14.167Z,4.57
2022-08-22T02:11:04.414Z,6.20
2022-08-22T02:13:58.787Z,6.57
2022-08-22T02:16:38.973Z,7.63
2022-08-22T02:19:34.249Z,6.90
2022-08-22T02:22:31.126Z,7.60
2022-08-22T02:25:20.898Z,7.47
2022-08-22T02:28:40.489Z,10.93
2022-08-22T02:31:53.532Z,6.10
2022-08-22T02:35:01.273Z,8.30
2022-08-22T02:38:07.626Z,6.77
2022-08-22T02:41:02.044Z,5.70
2022-08-22T02:44:04.874Z,7.47
2022-08-22T02:46:54.602Z,4.00
2022-08-22T02:49:50.270Z,8.70
2022-08-22T02:52:27.989Z,8.63
2022-08-22T02:55:29.725Z,8.30
2022-08-22T02:58:30.429Z,7.83
2022-08-22T03:01:03.252Z,7.43
2022-08-22T03:03:39.847Z,12.23
2022-08-22T03:06:43.534Z,4.67
2022-08-22T03:09:16.155Z,4.90
2022-08-22T03:12:06.890Z,6.10
2022-08-22T03:15:09.994Z,5.57
2022-08-22T03:17:58.437Z,8.87
2022-08-22T03:21:15.133Z,9.60
2022-08-22T03:24:16.394Z,10.37
2022-08-22T03:27:15.167Z,7.20
2022-08-22T03:30:34.971Z,5.13
2022-08-22T03:33:18.338Z,6.83
2022-08-22T03:35:45.177Z,5.07
2022-08-22T03:38:32.733Z,7.07
2022-08-22T03:41:44.906Z,12.37
2022-08-22T03:44:55.274Z,7.97
2022-08-22T03:47:55.965Z,8.33
2022-08-22T03:50:50.640Z,9.70
2022-08-22T03:53:43.777Z,7.17
2022-08-22T03:56:28.529Z,7.03
2022-08-22T03:59:42.753Z,9.23
2022-08-22T04:02:50.363Z,7.97
2022-08-22T04:05:52.817Z,10.33
2022-08-22T04:08:43.989Z,6.33
2022-08-22T04:11:49.620Z,9.57
2022-08-22T04:14:59.556Z,7.10
2022-08-22T04:17:26.229Z,7.67
2022-08-22T04:20:32.489Z,7.67
2022-08-22T04:23:20.663Z,6.60
2022-08-22T04:25:55.201Z,10.73
2022-08-22T04:28:57.105Z,5.00
2022-08-22T04:31:36.631Z,7.87
2022-08-22T04:34:20.850Z,11.50
2022-08-22T04:36:58.521Z,11.33
2022-08-22T04:39:48.195Z,8.50
2022-08-22T04:42:36.319Z,7.20
2022-08-22T04:45:19.159Z,8.90
2022-08-22T04:48:00.167Z,6.30
2022-08-22T04:50:54.961Z,12.83
2022-08-22T04:53:59.569Z,7.37
2022-08-22T04:57:24.882Z,9.57
2022-08-22T04:59:58.917Z,6.77
2022-08-22T05:02:27.836Z,7.03
2022-08-22T05:05:05.562Z,11.40
2022-08-22T05:07:49.275Z,8.07
2022-08-22T05:10:34.203Z,7.20
2022-08-22T05:13:23.944Z,6.50
2022-08-22T05:15:59.134Z,13.67
2022-08-22T05:18:29.933Z,8.33
2022-08-22T05:21:03.049Z,8.27
2022-08-22T05:23:43.288Z,6.93
2022-08-22T05:26:13.042Z,9.37
2022-08-22T05:28:53.568Z,8.47
2022-08-22T05:31:41.948Z,9.10
2022-08-22T05:34:17.196Z,8.27
2022-08-22T05:37:04.533Z,10.23
2022-08-22T05:39:38.572Z,8.40
2022-08-22T05:42:13.418Z,13.63
2022-08-22T05:44:40.228Z,9.37
2022-08-22T05:47:27.371Z,14.27
2022-08-22T05:50:30.692Z,13.57
2022-08-22T05:53:28.730Z,9.47
2022-08-22T05:56:05.996Z,9.80
2022-08-22T05:58:50.969Z,12.17
2022-08-22T06:01:29.112Z,11.47
2022-08-22T06:04:27.115Z,18.43
2022-08-22T06:07:16.387Z,12.87
2022-08-22T06:10:02.299Z,13.20
2022-08-22T06:12:37.243Z,13.60
2022-08-22T06:15:33.372Z,6.17
2022-08-22T06:18:10.362Z,7.63
2022-08-22T06:20:52.658Z,9.03
2022-08-22T06:23:33.020Z,16.00
2022-08-22T06:26:01.857Z,21.17
2022-08-22T06:28:38.014Z,34.63
2022-08-22T06:31:47.061Z,10.90
2022-08-22T06:34:20.354Z,8.27
2022-08-22T06:36:51.237Z,9.07
2022-08-22T06:39:36.597Z,10.33
2022-08-22T06:42:22.967Z,9.50
2022-08-22T06:45:00.923Z,14.60
2022-08-22T06:47:39.336Z,10.47
2022-08-22T06:50:14.697Z,9.30
2022-08-22T06:53:07.393Z,10.45
2022-08-22T06:55:39.022Z,8.98
2022-08-22T06:58:20.564Z,9.80
2022-08-22T07:00:58.869Z,9.23
2022-08-22T07:03:53.899Z,11.68
2022-08-22T07:06:50.040Z,9.98
2022-08-22T07:09:28.107Z,11.60
2022-08-22T07:11:59.819Z,14.32
2022-08-22T07:14:33.141Z,14.10
2022-08-22T07:17:08.226Z,12.23
2022-08-22T07:19:41.420Z,14.02
2022-08-22T07:22:23.523Z,16.30
2022-08-22T07:25:09.213Z,18.35
2022-08-22T07:28:51.226Z,12.57
2022-08-22T07:31:57.996Z,15.05
2022-08-22T07:34:44.634Z,14.30
2022-08-22T07:37:48.170Z,15.75
2022-08-22T07:40:45.057Z,9.52
2022-08-22T07:43:35.355Z,16.15
2022-08-22T07:46:21.367Z,16.42
2022-08-22T07:49:09.072Z,13.25
2022-08-22T07:51:50.667Z,13.88
2022-08-22T07:54:28.781Z,14.25
2022-08-22T07:57:07.884Z,14.05
2022-08-22T07:59:39.790Z,11.32
2022-08-22T08:02:13.831Z,15.45
2022-08-22T08:04:42.390Z,15.80
2022-08-22T08:07:14.871Z,14.35
2022-08-22T08:09:51.164Z,17.92
2022-08-22T08:12:32.773Z,9.43
2022-08-22T08:15:04.042Z,11.70
2022-08-22T08:17:35.332Z,12.95
2022-08-22T08:20:24.351Z,10.68
2022-08-22T08:22:54.009Z,7.90
2022-08-22T08:25:28.925Z,16.08
2022-08-22T08:28:18.234Z,9.23
2022-08-22T08:31:02.122Z,13.90
2022-08-22T08:33:32.056Z,13.25
2022-08-22T08:36:06.799Z,15.43
2022-08-22T08:39:14.166Z,15.90
2022-08-22T08:42:18.284Z,12.40
2022-08-22T08:45:09.471Z,17.10
2022-08-22T08:47:42.740Z,19.23
2022-08-22T08:50:45.525Z,12.38
2022-08-22T08:53:52.769Z,8.55
2022-08-22T08:56:36.547Z,12.10
2022-08-22T08:59:10.096Z,14.05
2022-08-22T09:02:05.976Z,17.25
2022-08-22T09:05:20.809Z,15.73
2022-08-22T09:08:22.166Z,15.80
2022-08-22T09:11:30.875Z,17.33
2022-08-22T09:15:01.504Z,15.40
2022-08-22T09:17:51.241Z,13.07
2022-08-22T09:20:42.403Z,18.80
2022-08-22T09:23:22.021Z,14.57
2022-08-22T09:25:57.366Z,12.98
2022-08-22T09:28:37.417Z,12.80
2022-08-22T09:31:51.822Z,14.40
2022-08-22T09:34:38.990Z,11.23
2022-08-22T09:37:41.495Z,8.00
2022-08-22T09:40:35.948Z,13.75
2022-08-22T09:43:09.207Z,8.88
2022-08-22T09:45:53.941Z,13.70
2022-08-22T09:49:05.635Z,9.27
2022-08-22T09:52:14.565Z,12.40
2022-08-22T09:55:02.574Z,11.95
2022-08-22T09:58:02.961Z,17.98
2022-08-22T10:00:54.471Z,14.48
2022-08-22T10:03:45.170Z,14.85
2022-08-22T10:06:27.619Z,16.08
2022-08-22T10:09:18.759Z,10.38
2022-08-22T10:11:58.177Z,10.80
2022-08-22T10:14:38.395Z,11.82
2022-08-22T10:17:28.314Z,10.05
2022-08-22T10:20:09.089Z,8.63
2022-08-22T10:23:02.296Z,7.13
2022-08-22T10:25:42.289Z,9.77
2022-08-22T10:28:24.108Z,10.57
2022-08-22T10:30:58.461Z,6.57
2022-08-22T10:33:37.446Z,14.43
2022-08-22T10:36:31.228Z,10.70
2022-08-22T10:39:02.075Z,7.03
2022-08-22T10:42:27.906Z,6.95
2022-08-22T10:45:23.593Z,10.35
2022-08-22T10:48:05.040Z,12.57
2022-08-22T10:50:55.787Z,13.57
2022-08-22T10:53:51.439Z,8.88
2022-08-22T10:56:49.459Z,9.57
2022-08-22T10:59:39.282Z,12.15
2022-08-22T11:02:25.048Z,13.48
2022-08-22T11:05:19.322Z,8.00
2022-08-22T11:08:14.342Z,8.27
2022-08-22T11:11:09.063Z,11.50
2022-08-22T11:13:57.121Z,12.85
2022-08-22T11:16:41.966Z,10.68
2022-08-22T11:19:55.572Z,8.23
2022-08-22T11:22:47.579Z,11.05
2022-08-22T11:25:41.340Z,9.57
2022-08-22T11:28:38.082Z,8.18
2022-08-22T11:31:52.172Z,7.57
2022-08-22T11:34:55.732Z,10.18
2022-08-22T11:37:54.877Z,5.65
2022-08-22T11:40:35.341Z,7.15
2022-08-22T11:43:38.089Z,8.30
2022-08-22T11:46:23.880Z,7.95
2022-08-22T11:49:37.243Z,7.20
2022-08-22T11:52:53.363Z,8.70
2022-08-22T11:55:33.238Z,7.68
2022-08-22T11:58:46.226Z,6.07
2022-08-22T12:01:37.362Z,9.20
2022-08-22T12:04:36.117Z,7.70
2022-08-22T12:07:26.749Z,7.68
2022-08-22T12:10:19.947Z,4.35
2022-08-22T12:13:01.343Z,6.35
2022-08-22T12:15:59.727Z,5.68
2022-08-22T12:19:22.915Z,8.57
2022-08-22T12:22:44.437Z,6.57
2022-08-22T12:25:47.811Z,8.15
2022-08-22T12:28:39.990Z,4.78
2022-08-22T12:31:41.497Z,5.75
2022-08-22T12:35:00.678Z,9.20
2022-08-22T12:37:59.459Z,6.10
2022-08-22T12:40:53.745Z,7.57
2022-08-22T12:44:00.384Z,4.28
2022-08-22T12:47:04.288Z,7.28
2022-08-22T12:50:05.788Z,7.30
2022-08-22T12:53:02.299Z,5.35
2022-08-22T12:55:50.071Z,6.63
2022-08-22T12:59:02.299Z,5.57
2022-08-22T13:01:43.580Z,7.07
2022-08-22T13:04:32.582Z,5.10
2022-08-22T13:07:22.724Z,7.85
2022-08-22T13:10:14.809Z,4.28
2022-08-22T13:12:50.028Z,5.88
2022-08-22T13:15:34.260Z,6.05
2022-08-22T13:18:28.864Z,6.93
2022-08-22T13:21:00.972Z,4.72
2022-08-22T13:23:41.977Z,7.47
2022-08-22T13:26:33.693Z,5.78
2022-08-22T13:29:26.558Z,5.43
2022-08-22T13:32:03.656Z,4.13
2022-08-22T13:34:47.912Z,5.28
2022-08-22T13:37:29.358Z,5.13
2022-08-22T13:40:04.071Z,5.30
2022-08-22T13:42:40.175Z,6.43
2022-08-22T13:45:18.333Z,4.55
2022-08-22T13:48:03.551Z,6.53
2022-08-22T13:50:37.467Z,6.65
2022-08-22T13:53:51.187Z,5.20
2022-08-22T13:56:53.494Z,8.90
2022-08-22T14:00:01.569Z,6.38
2022-08-22T14:03:08.104Z,5.40
2022-08-22T14:05:54.895Z,8.70
2022-08-22T14:08:45.877Z,6.63
2022-08-22T14:11:40.228Z,7.57
2022-08-22T14:14:08.336Z,4.85
2022-08-22T14:16:50.768Z,4.47
2022-08-22T14:19:52.717Z,8.52
2022-08-22T14:22:35.080Z,6.00
2022-08-22T14:25:25.928Z,4.40
2022-08-22T14:28:06.485Z,5.35
2022-08-22T14:31:07.227Z,5.75
2022-08-22T14:33:50.339Z,8.75
2022-08-22T14:36:25.223Z,4.85
2022-08-22T14:39:01.063Z,9.40
2022-08-22T14:41:55.632Z,4.68
2022-08-22T14:44:42.268Z,4.20
2022-08-22T14:48:14.185Z,4.43
2022-08-22T14:50:56.454Z,5.63
2022-08-22T14:53:31.753Z,7.78
2022-08-22T14:56:11.340Z,5.75
2022-08-22T14:59:03.459Z,9.82
2022-08-22T15:01:51.312Z,6.57
2022-08-22T15:04:30.218Z,6.70
2022-08-22T15:06:59.537Z,5.13
2022-08-22T15:09:57.285Z,8.43
2022-08-22T15:12:33.990Z,9.57
2022-08-22T15:15:27.106Z,6.35
2022-08-22T15:17:54.707Z,5.18
2022-08-22T15:20:28.563Z,5.20
2022-08-22T15:23:10.162Z,4.00
2022-08-22T15:25:42.135Z,6.75
2022-08-22T15:28:20.100Z,6.53
2022-08-22T15:31:03.759Z,5.13
2022-08-22T15:33:45.439Z,8.23
2022-08-22T15:36:24.816Z,4.40
2022-08-22T15:39:27.148Z,6.10
2022-08-22T15:41:55.538Z,5.78
2022-08-22T15:44:32.147Z,4.43
2022-08-22T15:47:10.734Z,4.78
2022-08-22T15:49:54.560Z,3.70
2022-08-22T15:52:31.865Z,8.48
2022-08-22T15:55:23.194Z,5.57
2022-08-22T15:58:20.139Z,7.18
2022-08-22T16:01:19.712Z,6.18
2022-08-22T16:04:08.290Z,6.90
2022-08-22T16:06:55.091Z,3.97
2022-08-22T16:09:47.614Z,8.88
2022-08-22T16:12:45.797Z,6.75
2022-08-22T16:15:54.408Z,6.32
2022-08-22T16:18:43.702Z,9.25
2022-08-22T16:21:22.977Z,6.95
2022-08-22T16:23:58.491Z,5.75
2022-08-22T16:26:30.907Z,5.78
2022-08-22T16:29:04.359Z,9.23
2022-08-22T16:32:01.404Z,7.10
2022-08-22T16:34:37.134Z,9.43
2022-08-22T16:37:03.921Z,4.53
2022-08-22T16:39:52.494Z,3.30
2022-08-22T16:42:22.481Z,7.63
2022-08-22T16:45:14.761Z,5.30
2022-08-22T16:47:58.452Z,6.03
2022-08-22T16:50:38.372Z,5.82
2022-08-22T16:53:22.238Z,5.60
2022-08-22T16:56:02.423Z,6.72
2022-08-22T16:59:14.167Z,5.55
2022-08-22T17:02:06.021Z,5.88
2022-08-22T17:05:28.870Z,6.70
2022-08-22T17:08:25.662Z,4.25
2022-08-22T17:11:23.915Z,5.47
2022-08-22T17:14:37.852Z,5.95
2022-08-22T17:17:51.661Z,5.82
2022-08-22T17:20:37.002Z,9.57
2022-08-22T17:23:36.667Z,6.32
2022-08-22T17:26:24.996Z,6.32
2022-08-22T17:29:34.174Z,6.00
2022-08-22T17:32:16.647Z,6.95
2022-08-22T17:35:21.527Z,3.67
2022-08-22T17:38:09.420Z,7.00
2022-08-22T17:41:08.704Z,6.47
2022-08-22T17:44:27.260Z,4.10
2022-08-22T17:47:01.525Z,4.30
2022-08-22T17:49:45.181Z,7.65
2022-08-22T17:52:33.838Z,17.83
2022-08-22T17:55:27.266Z,4.05
2022-08-22T17:58:11.501Z,4.43
2022-08-22T18:00:54.349Z,6.60
2022-08-22T18:03:33.426Z,5.28
2022-08-22T18:06:28.880Z,4.05
2022-08-22T18:09:16.614Z,5.32
2022-08-22T18:11:52.583Z,4.82
2022-08-22T18:14:49.070Z,5.00
2022-08-22T18:17:29.713Z,4.13
2022-08-22T18:20:45.405Z,4.07
2022-08-22T18:23:41.318Z,4.82
2022-08-22T18:26:42.006Z,7.00
2022-08-22T18:29:19.907Z,5.82
2022-08-22T18:32:11.121Z,7.18
2022-08-22T18:35:15.959Z,13.82
2022-08-22T18:37:57.833Z,5.57
2022-08-22T18:40:33.362Z,5.03
2022-08-22T18:43:17.877Z,5.43
2022-08-22T18:45:47.837Z,5.97
2022-08-22T18:48:59.263Z,4.13
2022-08-22T18:51:38.678Z,5.85
2022-08-22T18:54:06.816Z,4.95
2022-08-22T18:56:40.461Z,6.15
2022-08-22T18:59:31.451Z,6.75
2022-08-22T19:02:22.970Z,5.72
2022-08-22T19:05:24.442Z,6.80
2022-08-22T19:08:00.151Z,6.65
2022-08-22T19:11:23.379Z,4.32
2022-08-22T19:14:28.004Z,8.40
2022-08-22T19:17:32.946Z,7.13
2022-08-22T19:20:38.819Z,4.63
2022-08-22T19:23:37.325Z,4.60
2022-08-22T19:26:29.333Z,5.22
2022-08-22T19:29:16.086Z,3.63
2022-08-22T19:31:46.023Z,17.33
2022-08-22T19:34:32.583Z,8.18
2022-08-22T19:37:32.410Z,10.70
2022-08-22T19:40:09.451Z,7.30
2022-08-22T19:42:44.070Z,6.10
2022-08-22T19:45:30.655Z,10.15
2022-08-22T19:48:13.949Z,7.35
2022-08-22T19:50:43.050Z,8.38
2022-08-22T19:53:58.060Z,8.07
2022-08-22T19:57:01.102Z,5.60
2022-08-22T20:00:09.819Z,5.72
2022-08-22T20:03:03.201Z,7.97
2022-08-22T20:06:33.727Z,8.85
2022-08-22T20:09:32.122Z,8.18
2022-08-22T20:12:19.235Z,6.03
2022-08-22T20:14:49.865Z,7.25
2022-08-22T20:17:27.705Z,4.03
2022-08-22T20:20:17.557Z,7.50
2022-08-22T20:22:59.493Z,7.60
2022-08-22T20:25:43.005Z,7.85
2022-08-22T20:28:50.996Z,5.22
2022-08-22T20:31:27.409Z,6.93
2022-08-22T20:34:13.388Z,5.88
2022-08-22T20:36:46.212Z,6.75
2022-08-22T20:39:24.522Z,7.78
2022-08-22T20:42:04.918Z,6.47
2022-08-22T20:44:53.529Z,6.55
2022-08-22T20:47:27.058Z,8.40
2022-08-22T20:50:12.067Z,4.38
2022-08-22T20:52:54.224Z,5.97
2022-08-22T20:55:31.909Z,6.53
2022-08-22T20:58:17.936Z,7.63
2022-08-22T21:00:51.097Z,6.43
2022-08-22T21:03:50.790Z,5.35
2022-08-22T21:06:31.997Z,6.55
2022-08-22T21:09:33.317Z,5.38
2022-08-22T21:12:04.491Z,9.38
2022-08-22T21:14:44.403Z,5.63
2022-08-22T21:17:35.485Z,9.82
2022-08-22T21:20:22.281Z,8.00
2022-08-22T21:22:51.520Z,8.05
2022-08-22T21:25:20.683Z,6.05
2022-08-22T21:27:49.798Z,9.55
2022-08-22T21:30:25.765Z,8.65
2022-08-22T21:32:56.206Z,5.40
2022-08-22T21:35:33.601Z,8.02
2022-08-22T21:38:02.209Z,7.55
2022-08-22T21:40:37.569Z,7.63
2022-08-22T21:43:12.956Z,6.18
2022-08-22T21:45:39.711Z,6.53
2022-08-22T21:48:35.119Z,7.22
2022-08-22T21:51:22.707Z,9.13
2022-08-22T21:53:56.044Z,6.65
2022-08-22T21:56:38.153Z,5.30
2022-08-22T21:59:52.253Z,6.38
2022-08-22T22:02:41.914Z,7.70
2022-08-22T22:05:18.270Z,11.20
2022-08-22T22:07:47.460Z,8.25
2022-08-22T22:10:18.322Z,6.32
2022-08-22T22:12:48.122Z,5.90
2022-08-22T22:15:21.985Z,6.35
2022-08-22T22:17:49.109Z,5.18
2022-08-22T22:20:20.764Z,5.28
2022-08-22T22:22:48.016Z,6.65
2022-08-22T22:25:39.855Z,7.00
2022-08-22T22:28:13.535Z,7.72
2022-08-22T22:30:42.572Z,6.70
2022-08-22T22:33:10.169Z,7.95
2022-08-22T22:35:40.211Z,6.05
2022-08-22T22:38:08.653Z,6.82
2022-08-22T22:40:36.003Z,8.18
2022-08-22T22:43:03.945Z,6.90
2022-08-22T22:45:31.160Z,7.78
2022-08-22T22:47:58.436Z,5.78
2022-08-22T22:50:26.157Z,7.30
2022-08-22T22:52:54.138Z,5.78
2022-08-22T22:55:24.230Z,6.28
2022-08-22T22:57:59.306Z,4.40
2022-08-22T23:00:30.767Z,5.28
2022-08-22T23:03:03.677Z,7.10
2022-08-22T23:05:32.099Z,4.63
2022-08-22T23:08:00.433Z,5.07
2022-08-22T23:10:30.798Z,9.43
2022-08-22T23:12:59.357Z,5.18
2022-08-22T23:15:26.952Z,7.83
2022-08-22T23:17:54.462Z,6.03
2022-08-22T23:20:21.835Z,8.20
2022-08-22T23:22:49.629Z,6.10
2022-08-22T23:25:16.681Z,5.63
2022-08-22T23:27:43.897Z,9.30
2022-08-22T23:30:15.524Z,4.80
2022-08-22T23:32:44.767Z,6.00
2022-08-22T23:35:11.718Z,5.70
2022-08-22T23:37:38.892Z,5.27
2022-08-22T23:40:10.460Z,6.53
2022-08-22T23:42:37.510Z,5.80
2022-08-22T23:45:05.829Z,5.33
2022-08-22T23:47:32.962Z,6.88
2022-08-22T23:50:02.968Z,5.17
2022-08-22T23:52:33.256Z,6.00
2022-08-22T23:55:00.211Z,7.17
2022-08-22T23:57:27.611Z,9.67
2022-08-22T23:59:57.820Z,8.40
